sensor_id;sensor_type;location;lat;lon;timestamp;P1;durP1;ratioP1;P2;durP2;ratioP2
64419;SDS011;50745;48.170;14.516;2023-03-26T00:08:06;30.30;;;20.42;;
64419;SDS011;50745;48.170;14.516;2023-03-26T00:18:22;31.67;;;20.80;;
64419;SDS011;50745;48.170;14.516;2023-03-26T00:28:44;31.35;;;21.00;;
64419;SDS011;50745;48.170;14.516;2023-03-26T00:38:58;30.00;;;20.02;;
64419;SDS011;50745;48.170;14.516;2023-03-26T00:49:20;32.75;;;21.05;;
64419;SDS011;50745;48.170;14.516;2023-03-26T00:59:35;29.35;;;19.63;;
64419;SDS011;50745;48.170;14.516;2023-03-26T01:09:57;27.60;;;18.67;;
64419;SDS011;50745;48.170;14.516;2023-03-26T01:20:13;28.50;;;19.00;;
64419;SDS011;50745;48.170;14.516;2023-03-26T01:30:41;28.02;;;19.10;;
64419;SDS011;50745;48.170;14.516;2023-03-26T01:40:59;28.50;;;19.53;;
64419;SDS011;50745;48.170;14.516;2023-03-26T01:51:27;26.38;;;18.27;;
64419;SDS011;50745;48.170;14.516;2023-03-26T02:01:43;24.77;;;17.75;;
64419;SDS011;50745;48.170;14.516;2023-03-26T02:12:08;26.40;;;18.38;;
64419;SDS011;50745;48.170;14.516;2023-03-26T02:22:23;26.55;;;17.63;;
64419;SDS011;50745;48.170;14.516;2023-03-26T02:32:45;24.48;;;16.95;;
64419;SDS011;50745;48.170;14.516;2023-03-26T02:43:01;24.83;;;17.13;;
64419;SDS011;50745;48.170;14.516;2023-03-26T02:53:24;23.90;;;16.27;;
64419;SDS011;50745;48.170;14.516;2023-03-26T03:04:01;22.42;;;16.25;;
64419;SDS011;50745;48.170;14.516;2023-03-26T03:14:22;22.50;;;15.52;;
64419;SDS011;50745;48.170;14.516;2023-03-26T03:24:37;24.52;;;15.95;;
64419;SDS011;50745;48.170;14.516;2023-03-26T03:34:57;23.90;;;15.98;;
64419;SDS011;50745;48.170;14.516;2023-03-26T03:56:35;19.75;;;14.38;;
64419;SDS011;50745;48.170;14.516;2023-03-26T04:07:12;21.60;;;14.63;;
64419;SDS011;50745;48.170;14.516;2023-03-26T04:17:52;20.42;;;14.32;;
64419;SDS011;50745;48.170;14.516;2023-03-26T04:28:01;20.93;;;15.03;;
64419;SDS011;50745;48.170;14.516;2023-03-26T04:38:43;20.00;;;14.23;;
64419;SDS011;50745;48.170;14.516;2023-03-26T04:48:57;19.95;;;13.43;;
64419;SDS011;50745;48.170;14.516;2023-03-26T04:59:27;17.08;;;12.85;;
64419;SDS011;50745;48.170;14.516;2023-03-26T05:09:47;17.73;;;13.13;;
64419;SDS011;50745;48.170;14.516;2023-03-26T05:20:36;17.63;;;12.90;;
64419;SDS011;50745;48.170;14.516;2023-03-26T05:30:51;17.67;;;13.15;;
64419;SDS011;50745;48.170;14.516;2023-03-26T05:41:17;17.65;;;12.23;;
64419;SDS011;50745;48.170;14.516;2023-03-26T05:51:32;17.17;;;11.82;;
64419;SDS011;50745;48.170;14.516;2023-03-26T06:02:13;16.92;;;12.35;;
64419;SDS011;50745;48.170;14.516;2023-03-26T06:12:47;16.58;;;12.00;;
64419;SDS011;50745;48.170;14.516;2023-03-26T06:23:08;17.58;;;11.90;;
64419;SDS011;50745;48.170;14.516;2023-03-26T06:33:49;17.58;;;12.57;;
64419;SDS011;50745;48.170;14.516;2023-03-26T06:44:10;14.88;;;11.10;;
64419;SDS011;50745;48.170;14.516;2023-03-26T06:54:57;15.75;;;11.73;;
64419;SDS011;50745;48.170;14.516;2023-03-26T07:05:28;16.13;;;11.37;;
64419;SDS011;50745;48.170;14.516;2023-03-26T07:16:12;16.25;;;11.70;;
64419;SDS011;50745;48.170;14.516;2023-03-26T07:47:54;14.43;;;10.50;;
64419;SDS011;50745;48.170;14.516;2023-03-26T08:09:57;14.40;;;10.43;;
64419;SDS011;50745;48.170;14.516;2023-03-26T08:30:48;14.30;;;10.18;;
64419;SDS011;50745;48.170;14.516;2023-03-26T09:23:07;13.93;;;10.18;;
64419;SDS011;50745;48.170;14.516;2023-03-26T09:54:38;12.40;;;9.68;;
64419;SDS011;50745;48.170;14.516;2023-03-26T10:15:41;13.52;;;9.40;;
64419;SDS011;50745;48.170;14.516;2023-03-26T10:26:17;12.63;;;9.05;;
64419;SDS011;50745;48.170;14.516;2023-03-26T11:08:38;12.63;;;9.18;;
64419;SDS011;50745;48.170;14.516;2023-03-26T11:19:51;11.95;;;8.88;;
64419;SDS011;50745;48.170;14.516;2023-03-26T11:30:09;12.37;;;8.50;;
64419;SDS011;50745;48.170;14.516;2023-03-26T11:40:33;12.20;;;8.85;;
64419;SDS011;50745;48.170;14.516;2023-03-26T11:50:52;10.45;;;8.15;;
64419;SDS011;50745;48.170;14.516;2023-03-26T12:01:16;10.70;;;8.30;;
64419;SDS011;50745;48.170;14.516;2023-03-26T12:11:32;11.75;;;8.13;;
64419;SDS011;50745;48.170;14.516;2023-03-26T12:21:57;10.40;;;7.88;;
64419;SDS011;50745;48.170;14.516;2023-03-26T12:32:13;10.13;;;7.57;;
64419;SDS011;50745;48.170;14.516;2023-03-26T12:42:35;10.55;;;8.07;;
64419;SDS011;50745;48.170;14.516;2023-03-26T12:53:02;10.20;;;7.43;;
64419;SDS011;50745;48.170;14.516;2023-03-26T13:45:25;8.85;;;6.88;;
64419;SDS011;50745;48.170;14.516;2023-03-26T13:55:43;8.25;;;6.70;;
64419;SDS011;50745;48.170;14.516;2023-03-26T14:06:05;9.45;;;7.15;;
64419;SDS011;50745;48.170;14.516;2023-03-26T14:16:25;9.40;;;7.00;;
64419;SDS011;50745;48.170;14.516;2023-03-26T14:47:23;9.63;;;6.18;;
64419;SDS011;50745;48.170;14.516;2023-03-26T15:40:25;7.68;;;5.60;;
64419;SDS011;50745;48.170;14.516;2023-03-26T15:51:06;8.10;;;6.00;;
64419;SDS011;50745;48.170;14.516;2023-03-26T16:11:58;8.43;;;6.25;;
64419;SDS011;50745;48.170;14.516;2023-03-26T16:22:14;6.57;;;4.73;;
64419;SDS011;50745;48.170;14.516;2023-03-26T16:32:35;8.80;;;5.50;;
64419;SDS011;50745;48.170;14.516;2023-03-26T16:53:24;7.05;;;4.93;;
64419;SDS011;50745;48.170;14.516;2023-03-26T17:03:46;7.93;;;5.40;;
64419;SDS011;50745;48.170;14.516;2023-03-26T17:24:44;6.15;;;4.72;;
64419;SDS011;50745;48.170;14.516;2023-03-26T17:35:45;7.47;;;5.00;;
64419;SDS011;50745;48.170;14.516;2023-03-26T17:45:59;7.05;;;4.95;;
64419;SDS011;50745;48.170;14.516;2023-03-26T17:56:23;6.97;;;5.07;;
64419;SDS011;50745;48.170;14.516;2023-03-26T18:06:53;6.15;;;4.57;;
64419;SDS011;50745;48.170;14.516;2023-03-26T18:17:29;6.60;;;4.70;;
64419;SDS011;50745;48.170;14.516;2023-03-26T18:27:38;6.55;;;4.80;;
64419;SDS011;50745;48.170;14.516;2023-03-26T18:38:09;5.50;;;4.15;;
64419;SDS011;50745;48.170;14.516;2023-03-26T18:48:26;6.18;;;4.55;;
64419;SDS011;50745;48.170;14.516;2023-03-26T18:58:51;6.10;;;4.40;;
64419;SDS011;50745;48.170;14.516;2023-03-26T19:09:12;5.97;;;4.18;;
64419;SDS011;50745;48.170;14.516;2023-03-26T19:19:40;5.80;;;4.43;;
64419;SDS011;50745;48.170;14.516;2023-03-26T19:29:48;6.13;;;4.45;;
64419;SDS011;50745;48.170;14.516;2023-03-26T19:40:20;6.13;;;4.40;;
64419;SDS011;50745;48.170;14.516;2023-03-26T20:00:58;6.70;;;4.63;;
64419;SDS011;50745;48.170;14.516;2023-03-26T20:11:14;7.28;;;4.65;;
64419;SDS011;50745;48.170;14.516;2023-03-26T20:21:35;5.47;;;3.97;;
64419;SDS011;50745;48.170;14.516;2023-03-26T20:31:51;4.90;;;3.80;;
64419;SDS011;50745;48.170;14.516;2023-03-26T20:42:15;5.43;;;3.97;;
64419;SDS011;50745;48.170;14.516;2023-03-26T20:52:30;5.70;;;4.10;;
64419;SDS011;50745;48.170;14.516;2023-03-26T21:02:54;5.40;;;3.80;;
64419;SDS011;50745;48.170;14.516;2023-03-26T21:13:23;5.13;;;3.80;;
64419;SDS011;50745;48.170;14.516;2023-03-26T21:23:56;5.35;;;3.80;;
64419;SDS011;50745;48.170;14.516;2023-03-26T21:34:13;5.85;;;3.67;;
64419;SDS011;50745;48.170;14.516;2023-03-26T21:44:35;5.53;;;3.70;;
64419;SDS011;50745;48.170;14.516;2023-03-26T21:54:50;5.30;;;3.67;;
64419;SDS011;50745;48.170;14.516;2023-03-26T22:15:28;5.35;;;3.83;;
64419;SDS011;50745;48.170;14.516;2023-03-26T22:25:50;4.97;;;3.42;;
64419;SDS011;50745;48.170;14.516;2023-03-26T22:36:05;4.93;;;3.60;;
64419;SDS011;50745;48.170;14.516;2023-03-26T22:46:26;4.78;;;3.38;;
64419;SDS011;50745;48.170;14.516;2023-03-26T22:56:41;4.75;;;3.60;;
64419;SDS011;50745;48.170;14.516;2023-03-26T23:07:02;5.27;;;3.67;;
64419;SDS011;50745;48.170;14.516;2023-03-26T23:17:17;4.65;;;3.45;;
64419;SDS011;50745;48.170;14.516;2023-03-26T23:27:38;3.97;;;2.95;;
64419;SDS011;50745;48.170;14.516;2023-03-26T23:37:54;5.43;;;3.70;;
64419;SDS011;50745;48.170;14.516;2023-03-26T23:48:15;4.88;;;3.35;;
64419;SDS011;50745;48.170;14.516;2023-03-26T23:58:31;4.68;;;3.40;;
